Ash Flat, Arkansas
Current Conditions -  °F | °C
As of 6:15 AM on Thursday 18 Dec 2014 (Local Time) from KBVX Reporting Station
Overcast Overcast  
Wind Chill: 36°   Ceiling: 600
Heat Index: 36°   Visibility: 10mi
Dew Point: 32°   Wind: 3mph
Humidity: 87%   Direction: 110°ESE
Pressure: 30.23"   Gusts: NA
Location:  36.22°N, 91.61°W
Report Text: KBVX 181215Z AUTO 11003KT 10SM OVC006 02/00 A3023 RMK AO1
Loading
Personal Weather Stations






























Interactive Weather Map New forecast layout! Learn more

10-Day Weather Forecast

Advertisements
Track Severe Weather on mobile